createdAt,value
2022-11-20T00:00:57.718Z,-0.44
2022-11-20T00:03:25.818Z,-0.47
2022-11-20T00:05:53.893Z,-0.47
2022-11-20T00:08:22.328Z,-0.49
2022-11-20T00:10:50.424Z,-0.79
2022-11-20T00:13:18.534Z,-1.01
2022-11-20T00:15:47.879Z,-1.15
2022-11-20T00:18:16.050Z,-1.15
2022-11-20T00:20:44.017Z,-1.32
2022-11-20T00:23:12.021Z,-0.94
2022-11-20T00:25:39.994Z,-0.90
2022-11-20T00:28:07.933Z,-1.11
2022-11-20T00:30:35.937Z,-1.12
2022-11-20T00:33:05.296Z,-1.24
2022-11-20T00:35:33.270Z,-0.91
2022-11-20T00:38:01.150Z,-0.76
2022-11-20T00:40:29.100Z,-0.66
2022-11-20T00:42:57.017Z,-0.66
2022-11-20T00:45:24.965Z,-0.54
2022-11-20T00:47:52.870Z,-0.49
2022-11-20T00:50:22.250Z,-0.44
2022-11-20T00:52:50.148Z,-0.37
2022-11-20T00:55:18.058Z,-0.17
2022-11-20T00:57:45.956Z,-0.15
2022-11-20T01:00:14.098Z,-0.42
2022-11-20T01:02:42.022Z,-0.43
2022-11-20T01:05:10.220Z,-0.49
2022-11-20T01:07:39.564Z,-0.63
2022-11-20T01:10:08.714Z,-0.64
2022-11-20T01:12:36.595Z,-0.63
2022-11-20T01:15:04.919Z,-0.66
2022-11-20T01:17:33.413Z,-0.59
2022-11-20T01:20:01.447Z,-0.72
2022-11-20T01:22:29.354Z,-0.70
2022-11-20T01:24:58.675Z,-0.75
2022-11-20T01:27:26.731Z,-0.57
2022-11-20T01:29:59.758Z,-0.59
2022-11-20T01:32:29.034Z,-0.75
2022-11-20T01:34:56.927Z,-0.86
2022-11-20T01:37:24.865Z,-0.78
2022-11-20T01:39:52.873Z,-0.86
2022-11-20T01:42:39.541Z,-0.76
2022-11-20T01:45:40.643Z,-0.75
2022-11-20T01:48:08.582Z,-0.73
2022-11-20T01:50:36.910Z,-0.81
2022-11-20T01:53:07.385Z,-1.04
2022-11-20T01:55:38.798Z,-0.92
2022-11-20T01:58:08.718Z,-0.83
2022-11-20T02:00:37.474Z,-0.79
2022-11-20T02:03:10.590Z,-0.80
2022-11-20T02:05:43.890Z,-0.84
2022-11-20T02:08:11.903Z,-0.89
2022-11-20T02:10:40.036Z,-0.90
2022-11-20T02:13:27.869Z,-0.94
2022-11-20T02:15:56.153Z,-0.94
2022-11-20T02:18:25.328Z,-1.08
2022-11-20T02:20:57.832Z,-1.12
2022-11-20T02:23:34.196Z,-1.08
2022-11-20T02:26:05.677Z,-1.26
2022-11-20T02:28:34.327Z,-1.40
2022-11-20T02:31:03.606Z,-1.39
2022-11-20T02:33:31.555Z,-1.53
2022-11-20T02:35:59.476Z,-1.49
2022-11-20T02:38:27.481Z,-1.36
2022-11-20T02:40:55.961Z,-1.30
2022-11-20T02:43:25.618Z,-1.30
2022-11-20T02:45:53.541Z,-1.28
2022-11-20T02:48:22.933Z,-1.29
2022-11-20T02:50:52.551Z,-1.27
2022-11-20T02:53:20.611Z,-1.31
2022-11-20T02:55:48.576Z,-1.35
2022-11-20T02:58:16.529Z,-1.33
2022-11-20T03:00:45.873Z,-1.36
2022-11-20T03:03:13.800Z,-1.32
2022-11-20T03:05:41.779Z,-1.30
2022-11-20T03:08:09.730Z,-1.33
2022-11-20T03:10:37.655Z,-1.40
2022-11-20T03:13:05.597Z,-1.30
2022-11-20T03:15:33.626Z,-1.29
2022-11-20T03:18:02.918Z,-1.31
2022-11-20T03:20:30.850Z,-1.35
2022-11-20T03:22:58.754Z,-1.37
2022-11-20T03:25:26.715Z,-1.39
2022-11-20T03:27:54.644Z,-1.42
2022-11-20T03:30:27.595Z,-1.47
2022-11-20T03:32:58.696Z,-1.52
2022-11-20T03:35:28.026Z,-1.46
2022-11-20T03:37:55.948Z,-1.45
2022-11-20T03:40:23.922Z,-1.47
2022-11-20T03:42:51.840Z,-1.49
2022-11-20T03:45:20.421Z,-1.48
2022-11-20T03:47:48.522Z,-1.50
2022-11-20T03:50:16.686Z,-1.51
2022-11-20T03:52:45.949Z,-1.54
2022-11-20T03:55:13.931Z,-1.54
2022-11-20T03:57:41.918Z,-1.55
2022-11-20T04:00:10.916Z,-1.56
2022-11-20T04:02:38.870Z,-1.58
2022-11-20T04:05:07.697Z,-1.61
2022-11-20T04:07:36.536Z,-1.67
2022-11-20T04:10:06.943Z,-1.62
2022-11-20T04:12:35.600Z,-1.66
2022-11-20T04:15:03.536Z,-1.61
2022-11-20T04:17:31.457Z,-1.59
2022-11-20T04:19:59.398Z,-1.59
2022-11-20T04:22:27.402Z,-1.69
2022-11-20T04:24:55.398Z,-1.79
2022-11-20T04:27:24.735Z,-1.75
2022-11-20T04:29:52.643Z,-1.72
2022-11-20T04:32:20.583Z,-1.69
2022-11-20T04:34:48.536Z,-1.70
2022-11-20T04:37:16.455Z,-1.72
2022-11-20T04:39:44.633Z,-1.68
2022-11-20T04:42:31.132Z,-1.63
2022-11-20T04:45:00.528Z,-1.70
2022-11-20T04:47:28.467Z,-1.67
2022-11-20T04:49:56.517Z,-1.65
2022-11-20T04:52:24.495Z,-1.62
2022-11-20T04:54:53.899Z,-1.63
2022-11-20T04:57:22.032Z,-1.65
2022-11-20T04:59:49.939Z,-1.64
2022-11-20T05:02:19.432Z,-1.60
2022-11-20T05:04:47.411Z,-1.56
2022-11-20T05:07:15.649Z,-1.59
2022-11-20T05:09:43.826Z,-1.57
2022-11-20T05:12:12.119Z,-1.59
2022-11-20T05:14:40.028Z,-1.62
2022-11-20T05:17:08.112Z,-1.58
2022-11-20T05:19:37.482Z,-1.63
2022-11-20T05:22:06.809Z,-1.64
2022-11-20T05:24:34.695Z,-1.67
2022-11-20T05:27:02.599Z,-1.69
2022-11-20T05:29:30.508Z,-1.63
2022-11-20T05:31:58.450Z,-1.70
2022-11-20T05:34:26.430Z,-1.73
2022-11-20T05:36:55.748Z,-1.72
2022-11-20T05:39:24.025Z,-1.69
2022-11-20T05:42:12.672Z,-1.77
2022-11-20T05:44:40.779Z,-1.80
2022-11-20T05:47:08.740Z,-1.84
2022-11-20T05:49:36.638Z,-1.81
2022-11-20T05:52:06.139Z,-1.85
2022-11-20T05:54:34.445Z,-1.79
2022-11-20T05:57:02.434Z,-1.94
2022-11-20T05:59:30.338Z,-1.94
2022-11-20T06:01:58.287Z,-1.87
2022-11-20T06:04:26.444Z,-1.85
2022-11-20T06:06:54.398Z,-1.79
2022-11-20T06:09:23.882Z,-1.79
2022-11-20T06:11:51.979Z,-1.90
2022-11-20T06:14:19.871Z,-1.89
2022-11-20T06:16:47.794Z,-1.90
2022-11-20T06:19:16.103Z,-1.92
2022-11-20T06:21:44.143Z,-1.88
2022-11-20T06:24:12.761Z,-1.85
2022-11-20T06:26:42.065Z,-1.83
2022-11-20T06:29:10.234Z,-1.81
2022-11-20T06:31:38.865Z,-1.79
2022-11-20T06:34:07.846Z,-1.85
2022-11-20T06:36:36.070Z,-1.79
2022-11-20T06:39:04.615Z,-1.74
2022-11-20T06:41:32.513Z,-1.76
2022-11-20T06:44:01.817Z,-1.70
2022-11-20T06:46:29.729Z,-1.69
2022-11-20T06:48:57.934Z,-1.65
2022-11-20T06:51:26.561Z,-1.56
2022-11-20T06:53:55.193Z,-1.63
2022-11-20T06:56:23.122Z,-1.72
2022-11-20T06:58:51.036Z,-1.54
2022-11-20T07:01:20.464Z,-1.75
2022-11-20T07:03:54.260Z,-1.59
2022-11-20T07:06:22.606Z,-1.45
2022-11-20T07:08:52.763Z,-1.38
2022-11-20T07:11:20.713Z,-1.39
2022-11-20T07:13:48.688Z,-1.39
2022-11-20T07:16:17.736Z,-1.32
2022-11-20T07:18:50.495Z,-1.27
2022-11-20T07:21:19.147Z,-1.25
2022-11-20T07:23:48.055Z,-1.40
2022-11-20T07:26:16.896Z,-1.33
2022-11-20T07:28:47.117Z,-1.21
2022-11-20T07:31:19.054Z,-1.29
2022-11-20T07:33:48.666Z,-1.21
2022-11-20T07:36:17.009Z,-1.18
2022-11-20T07:38:44.984Z,-0.97
2022-11-20T07:41:13.057Z,-1.06
2022-11-20T07:43:41.772Z,-1.26
2022-11-20T07:46:09.958Z,-1.12
2022-11-20T07:48:38.019Z,-0.91
2022-11-20T07:51:07.627Z,-0.96
2022-11-20T07:53:35.635Z,-0.87
2022-11-20T07:56:04.473Z,-0.79
2022-11-20T07:58:34.062Z,-0.76
2022-11-20T08:01:05.537Z,-0.74
2022-11-20T08:03:33.602Z,-0.83
2022-11-20T08:06:01.996Z,-0.57
2022-11-20T08:08:33.679Z,-0.54
2022-11-20T08:11:16.005Z,-0.68
2022-11-20T08:14:01.462Z,-0.78
2022-11-20T08:16:29.329Z,-0.82
2022-11-20T08:18:57.383Z,-0.74
2022-11-20T08:21:25.360Z,-0.67
2022-11-20T08:23:54.724Z,-0.70
2022-11-20T08:26:23.835Z,-0.56
2022-11-20T08:28:51.756Z,-0.46
2022-11-20T08:31:19.652Z,-0.87
2022-11-20T08:33:47.527Z,-1.06
2022-11-20T08:36:15.735Z,-0.83
2022-11-20T08:38:43.620Z,-0.61
2022-11-20T08:41:28.729Z,-0.44
2022-11-20T08:43:58.744Z,-0.35
2022-11-20T08:46:28.613Z,-0.24
2022-11-20T08:48:56.510Z,-0.40
2022-11-20T08:51:24.500Z,-0.09
2022-11-20T08:53:52.401Z,0.23
2022-11-20T08:56:22.831Z,0.02
2022-11-20T08:59:18.366Z,0.21
2022-11-20T09:01:40.605Z,0.08
2022-11-20T09:04:08.687Z,0.41
2022-11-20T09:06:36.592Z,0.41
2022-11-20T09:09:06.777Z,0.45
2022-11-20T09:11:38.623Z,0.73
2022-11-20T09:14:06.564Z,0.69
2022-11-20T09:16:34.476Z,0.76
2022-11-20T09:19:33.572Z,0.87
2022-11-20T09:21:50.504Z,0.92
2022-11-20T09:24:18.369Z,0.82
2022-11-20T09:26:47.634Z,0.70
2022-11-20T09:29:15.527Z,0.69
2022-11-20T09:31:43.422Z,0.44
2022-11-20T09:34:11.302Z,0.69
2022-11-20T09:36:49.914Z,0.44
2022-11-20T09:39:21.699Z,0.77
2022-11-20T09:42:06.444Z,0.65
2022-11-20T09:44:51.447Z,0.59
2022-11-20T09:47:29.620Z,0.41
2022-11-20T09:50:08.491Z,0.40
2022-11-20T09:52:50.382Z,0.06
2022-11-20T09:55:19.246Z,-0.03
2022-11-20T09:57:52.896Z,0.09
2022-11-20T10:00:22.309Z,0.52
2022-11-20T10:02:57.689Z,0.82
2022-11-20T10:05:30.152Z,1.03
2022-11-20T10:08:11.023Z,0.90
2022-11-20T10:10:46.489Z,1.19
2022-11-20T10:13:36.592Z,1.02
2022-11-20T10:16:18.869Z,1.37
2022-11-20T10:19:01.351Z,1.62
2022-11-20T10:21:36.960Z,1.24
2022-11-20T10:24:32.117Z,1.48
2022-11-20T10:27:11.449Z,1.42
2022-11-20T10:29:45.874Z,1.73
2022-11-20T10:32:18.503Z,1.80
2022-11-20T10:34:51.115Z,1.71
2022-11-20T10:37:23.586Z,1.95
2022-11-20T10:39:58.853Z,1.72
2022-11-20T10:42:33.813Z,1.73
2022-11-20T10:45:17.886Z,2.19
2022-11-20T10:47:46.489Z,2.12
2022-11-20T10:50:22.603Z,2.28
2022-11-20T10:52:58.267Z,2.03
2022-11-20T10:55:32.634Z,2.12
2022-11-20T10:58:10.691Z,2.25
2022-11-20T11:00:40.080Z,2.55
2022-11-20T11:03:22.867Z,2.70
2022-11-20T11:05:57.079Z,2.97
2022-11-20T11:08:31.102Z,2.87
2022-11-20T11:11:01.145Z,2.77
2022-11-20T11:13:30.768Z,3.20
2022-11-20T11:16:00.131Z,2.52
2022-11-20T11:18:30.933Z,2.81
2022-11-20T11:21:01.360Z,2.88
2022-11-20T11:23:34.603Z,3.19
2022-11-20T11:26:04.804Z,3.28
2022-11-20T11:28:33.020Z,2.88
2022-11-20T11:31:02.357Z,2.79
2022-11-20T11:33:32.317Z,2.99
2022-11-20T11:36:02.733Z,3.33
2022-11-20T11:38:35.293Z,3.43
2022-11-20T11:41:04.327Z,3.14
2022-11-20T11:43:52.642Z,3.48
2022-11-20T11:46:39.991Z,3.54
2022-11-20T11:49:18.538Z,3.54
2022-11-20T11:52:07.263Z,3.28
2022-11-20T11:54:42.090Z,3.71
2022-11-20T11:57:21.879Z,3.92
2022-11-20T12:00:03.806Z,3.97
2022-11-20T12:02:41.288Z,3.95
2022-11-20T12:05:21.084Z,3.45
2022-11-20T12:07:52.000Z,3.46
2022-11-20T12:10:24.418Z,3.24
2022-11-20T12:12:56.992Z,3.15
2022-11-20T12:15:32.548Z,3.17
2022-11-20T12:18:02.300Z,3.44
2022-11-20T12:20:38.424Z,3.31
2022-11-20T12:23:16.508Z,3.27
2022-11-20T12:25:46.479Z,3.56
2022-11-20T12:28:34.769Z,3.59
2022-11-20T12:31:19.393Z,3.20
2022-11-20T12:34:00.709Z,3.42
2022-11-20T12:36:37.787Z,3.38
2022-11-20T12:39:35.834Z,3.71
2022-11-20T12:43:03.216Z,3.85
2022-11-20T12:45:47.901Z,3.77
2022-11-20T12:48:43.650Z,3.76
2022-11-20T12:51:34.106Z,4.02
2022-11-20T12:54:23.234Z,4.11
2022-11-20T12:57:03.987Z,4.02
2022-11-20T12:59:50.776Z,4.01
2022-11-20T13:02:28.126Z,4.01
2022-11-20T13:05:08.532Z,3.91
2022-11-20T13:07:38.456Z,4.09
2022-11-20T13:10:16.145Z,3.90
2022-11-20T13:12:50.485Z,4.08
2022-11-20T13:15:28.971Z,4.14
2022-11-20T13:18:00.916Z,3.85
2022-11-20T13:20:30.147Z,4.06
2022-11-20T13:22:59.902Z,4.13
2022-11-20T13:25:30.213Z,4.23
2022-11-20T13:28:00.166Z,4.14
2022-11-20T13:30:29.125Z,4.16
2022-11-20T13:33:00.870Z,4.24
2022-11-20T13:35:32.244Z,4.27
2022-11-20T13:38:08.589Z,4.39
2022-11-20T13:40:39.076Z,4.26
2022-11-20T13:43:18.120Z,4.43
2022-11-20T13:45:57.783Z,4.18
2022-11-20T13:48:28.701Z,4.17
2022-11-20T13:51:17.532Z,4.31
2022-11-20T13:54:09.628Z,4.33
2022-11-20T13:56:49.960Z,3.99
2022-11-20T13:59:34.076Z,3.81
2022-11-20T14:02:03.385Z,4.09
2022-11-20T14:04:35.133Z,3.85
2022-11-20T14:07:03.761Z,3.98
2022-11-20T14:09:35.154Z,3.90
2022-11-20T14:12:04.991Z,3.58
2022-11-20T14:14:37.413Z,3.48
2022-11-20T14:17:09.594Z,3.55
2022-11-20T14:19:39.872Z,3.42
2022-11-20T14:22:18.829Z,3.66
2022-11-20T14:24:48.832Z,3.56
2022-11-20T14:27:18.757Z,3.44
2022-11-20T14:29:49.343Z,3.77
2022-11-20T14:32:19.222Z,3.69
2022-11-20T14:34:50.009Z,3.76
2022-11-20T14:37:22.736Z,3.61
2022-11-20T14:39:54.131Z,3.71
2022-11-20T14:42:24.835Z,3.58
2022-11-20T14:44:54.676Z,3.65
2022-11-20T14:47:27.084Z,3.56
2022-11-20T14:49:57.062Z,3.54
2022-11-20T14:52:27.886Z,3.53
2022-11-20T14:55:00.553Z,3.43
2022-11-20T14:57:30.667Z,3.37
2022-11-20T15:00:20.960Z,3.28
2022-11-20T15:02:50.642Z,3.25
2022-11-20T15:05:19.885Z,3.13
2022-11-20T15:07:50.219Z,3.10
2022-11-20T15:10:25.271Z,3.08
2022-11-20T15:12:55.337Z,3.01
2022-11-20T15:15:29.683Z,2.98
2022-11-20T15:17:57.736Z,2.96
2022-11-20T15:20:29.704Z,2.83
2022-11-20T15:22:57.642Z,2.74
2022-11-20T15:25:27.391Z,2.78
2022-11-20T15:27:57.989Z,2.78
2022-11-20T15:30:26.423Z,2.76
2022-11-20T15:32:54.371Z,2.68
2022-11-20T15:35:22.375Z,2.68
2022-11-20T15:37:50.531Z,2.63
2022-11-20T15:40:18.533Z,2.64
2022-11-20T15:43:01.701Z,2.63
2022-11-20T15:45:31.836Z,2.59
2022-11-20T15:48:00.040Z,2.55
2022-11-20T15:50:34.128Z,2.59
2022-11-20T15:53:02.093Z,2.60
2022-11-20T15:55:30.020Z,2.55
2022-11-20T15:57:59.324Z,2.54
2022-11-20T16:00:28.819Z,2.50
2022-11-20T16:02:58.483Z,2.21
2022-11-20T16:05:29.700Z,2.16
2022-11-20T16:07:57.843Z,2.23
2022-11-20T16:10:25.858Z,2.20
2022-11-20T16:13:11.189Z,2.27
2022-11-20T16:15:49.212Z,2.36
2022-11-20T16:18:19.966Z,2.20
2022-11-20T16:20:49.623Z,2.22
2022-11-20T16:23:17.674Z,2.36
2022-11-20T16:25:46.013Z,2.25
2022-11-20T16:28:18.615Z,2.32
2022-11-20T16:30:50.275Z,2.46
2022-11-20T16:33:19.509Z,2.53
2022-11-20T16:35:47.506Z,2.47
2022-11-20T16:38:15.447Z,2.56
2022-11-20T16:40:43.444Z,2.56
2022-11-20T16:43:13.334Z,2.60
2022-11-20T16:45:45.570Z,2.60
2022-11-20T16:48:16.690Z,2.61
2022-11-20T16:50:50.118Z,2.58
2022-11-20T16:53:18.923Z,2.55
2022-11-20T16:55:47.008Z,2.57
2022-11-20T16:58:15.304Z,2.51
2022-11-20T17:00:48.336Z,2.49
2022-11-20T17:03:21.158Z,2.42
2022-11-20T17:05:49.138Z,2.34
2022-11-20T17:08:17.199Z,2.44
2022-11-20T17:10:45.125Z,2.55
2022-11-20T17:13:13.072Z,2.58
2022-11-20T17:15:41.020Z,2.30
2022-11-20T17:18:08.949Z,2.52
2022-11-20T17:20:38.164Z,2.61
2022-11-20T17:23:06.117Z,2.69
2022-11-20T17:25:34.839Z,2.63
2022-11-20T17:28:02.773Z,2.70
2022-11-20T17:30:31.502Z,2.84
2022-11-20T17:32:59.406Z,2.77
2022-11-20T17:35:27.420Z,2.80
2022-11-20T17:37:56.751Z,2.83
2022-11-20T17:40:27.544Z,2.88
2022-11-20T17:42:56.239Z,2.78
2022-11-20T17:45:24.166Z,2.73
2022-11-20T17:47:52.208Z,2.63
2022-11-20T17:50:20.110Z,2.70
2022-11-20T17:52:47.995Z,2.65
2022-11-20T17:55:17.317Z,2.63
2022-11-20T17:57:53.299Z,2.57
2022-11-20T18:00:22.371Z,2.59
2022-11-20T18:02:50.364Z,2.58
2022-11-20T18:05:18.509Z,2.58
2022-11-20T18:07:46.432Z,2.44
2022-11-20T18:10:14.413Z,2.50
2022-11-20T18:12:44.014Z,2.47
2022-11-20T18:15:11.922Z,2.50
2022-11-20T18:17:39.816Z,2.58
2022-11-20T18:22:57.504Z,2.67
2022-11-20T18:25:25.491Z,2.61
2022-11-20T18:27:54.803Z,2.23
2022-11-20T18:30:23.003Z,2.15
2022-11-20T18:32:51.114Z,2.32
2022-11-20T18:35:19.121Z,2.35
2022-11-20T18:37:47.057Z,2.41
2022-11-20T18:40:15.410Z,2.36
2022-11-20T18:43:00.894Z,2.26
2022-11-20T18:45:30.471Z,2.15
2022-11-20T18:47:58.436Z,2.31
2022-11-20T18:50:26.388Z,2.33
2022-11-20T18:52:54.449Z,2.38
2022-11-20T18:55:25.151Z,2.35
2022-11-20T18:57:54.071Z,2.35
2022-11-20T19:00:22.296Z,2.36
2022-11-20T19:02:54.587Z,2.33
2022-11-20T19:05:22.979Z,2.08
2022-11-20T19:07:51.037Z,1.89
2022-11-20T19:10:20.422Z,1.76
2022-11-20T19:12:48.769Z,1.77
2022-11-20T19:15:16.710Z,1.99
2022-11-20T19:17:44.703Z,2.03
2022-11-20T19:20:14.141Z,2.08
2022-11-20T19:22:42.198Z,2.05
2022-11-20T19:25:10.587Z,1.74
2022-11-20T19:27:38.663Z,1.85
2022-11-20T19:30:07.896Z,1.88
2022-11-20T19:32:36.341Z,1.75
2022-11-20T19:35:04.793Z,1.82
2022-11-20T19:37:35.619Z,0.83
2022-11-20T19:40:04.765Z,0.59
2022-11-20T19:42:33.254Z,-0.37
2022-11-20T19:45:01.178Z,0.19
2022-11-20T19:47:52.812Z,0.52
2022-11-20T19:50:17.370Z,0.27
2022-11-20T19:52:46.622Z,0.73
2022-11-20T19:55:14.547Z,0.82
2022-11-20T19:57:42.533Z,0.69
2022-11-20T20:00:12.447Z,0.80
2022-11-20T20:02:40.450Z,1.00
2022-11-20T20:05:08.929Z,0.91
2022-11-20T20:07:36.925Z,0.83
2022-11-20T20:10:07.267Z,0.99
2022-11-20T20:12:35.321Z,1.06
2022-11-20T20:15:03.246Z,1.07
2022-11-20T20:17:31.227Z,0.95
2022-11-20T20:19:59.147Z,1.09
2022-11-20T20:22:27.178Z,1.12
2022-11-20T20:24:55.089Z,1.08
2022-11-20T20:27:24.470Z,1.12
2022-11-20T20:29:52.407Z,1.15
2022-11-20T20:32:20.316Z,1.12
2022-11-20T20:34:48.200Z,1.22
2022-11-20T20:37:16.086Z,1.29
2022-11-20T20:39:45.201Z,1.30
2022-11-20T20:42:13.093Z,1.37
2022-11-20T20:44:59.609Z,1.35
2022-11-20T20:47:31.815Z,1.40
2022-11-20T20:49:59.892Z,1.51
2022-11-20T20:52:28.189Z,1.52
2022-11-20T20:54:56.745Z,1.61
2022-11-20T20:57:25.310Z,1.48
2022-11-20T20:59:55.506Z,1.79
2022-11-20T21:02:23.996Z,1.96
2022-11-20T21:04:52.370Z,2.23
2022-11-20T21:07:20.610Z,2.11
2022-11-20T21:09:48.567Z,2.24
2022-11-20T21:12:16.485Z,2.30
2022-11-20T21:14:44.405Z,2.31
2022-11-20T21:17:15.533Z,2.30
2022-11-20T21:19:43.565Z,2.26
2022-11-20T21:22:10.458Z,2.47
2022-11-20T21:24:38.450Z,2.59
2022-11-20T21:27:07.451Z,2.28
2022-11-20T21:29:35.387Z,2.08
2022-11-20T21:32:03.301Z,2.06
2022-11-20T21:34:36.992Z,2.12
2022-11-20T21:37:08.171Z,2.19
2022-11-20T21:39:50.617Z,2.06
2022-11-20T21:42:18.814Z,2.26
2022-11-20T21:44:47.387Z,2.23
2022-11-20T21:47:15.405Z,2.21
2022-11-20T21:49:44.762Z,2.36
2022-11-20T21:52:13.721Z,2.27
2022-11-20T21:54:41.685Z,2.36
2022-11-20T21:57:09.592Z,2.46
2022-11-20T21:59:37.594Z,2.22
2022-11-20T22:02:05.630Z,1.83
2022-11-20T22:04:33.558Z,1.20
2022-11-20T22:07:02.979Z,1.53
2022-11-20T22:09:30.994Z,1.78
2022-11-20T22:11:58.935Z,2.04
2022-11-20T22:14:26.164Z,2.13
2022-11-20T22:16:54.980Z,2.11
2022-11-20T22:19:24.283Z,2.20
2022-11-20T22:21:52.525Z,2.27
2022-11-20T22:24:23.599Z,2.33
2022-11-20T22:26:52.301Z,2.14
2022-11-20T22:29:21.916Z,2.50
2022-11-20T22:31:52.891Z,2.55
2022-11-20T22:34:21.136Z,2.59
2022-11-20T22:36:49.542Z,2.70
2022-11-20T22:39:17.659Z,2.97
2022-11-20T22:41:47.005Z,2.82
2022-11-20T22:44:16.523Z,2.92
2022-11-20T22:46:44.550Z,3.07
2022-11-20T22:49:12.434Z,3.05
2022-11-20T22:51:41.639Z,3.03
2022-11-20T22:54:12.305Z,3.04
2022-11-20T22:56:40.844Z,2.56
2022-11-20T22:59:10.230Z,2.71
2022-11-20T23:01:38.837Z,2.69
2022-11-20T23:04:10.504Z,2.77
2022-11-20T23:06:38.853Z,1.62
2022-11-20T23:09:08.256Z,2.09
2022-11-20T23:11:36.837Z,2.47
2022-11-20T23:14:06.429Z,2.72
2022-11-20T23:16:36.290Z,2.53
2022-11-20T23:19:07.479Z,2.60
2022-11-20T23:21:36.631Z,2.63
2022-11-20T23:24:05.237Z,2.41
2022-11-20T23:26:35.559Z,1.68
2022-11-20T23:29:04.380Z,1.46
2022-11-20T23:31:33.855Z,1.07
2022-11-20T23:34:03.331Z,1.05
2022-11-20T23:36:31.786Z,1.14
2022-11-20T23:38:59.723Z,1.85
2022-11-20T23:41:27.928Z,2.00
2022-11-20T23:43:55.852Z,1.70
2022-11-20T23:46:23.776Z,1.78
2022-11-20T23:48:51.713Z,2.38
2022-11-20T23:51:21.003Z,2.01
2022-11-20T23:53:48.973Z,2.00
2022-11-20T23:56:16.948Z,2.56
2022-11-20T23:58:44.915Z,2.93
